Time;durP1;ratioP1;P1;durP2;ratioP2;P2;SDS_P1;SDS_P2;PMS_P1;PMS_P2;Temp;Humidity;BMP_temperature;BMP_pressure;BME280_temperature;BME280_humidity;BME280_pressure;Samples;Min_cycle;Max_cycle;Signal;HPM_P1;HPM_P2
2021/01/30 00:00:31;;;;;;;;;;;;;;;12.81;63.64;99418.00;5037658;28;1200;-70
2021/01/30 00:02:57;;;;;;;;;;;;;;;12.82;63.62;99414.34;5043618;28;1565;-58
2021/01/30 00:05:22;;;;;;;;;;;;;;;12.81;63.27;99406.50;5046257;28;1616;-58
2021/01/30 00:07:48;;;;;;;;;;;;;;;12.81;63.63;99398.56;5070613;28;1392;-69
2021/01/30 00:10:15;;;;;;;;;;;;;;;12.82;63.88;99381.69;5051542;28;1541;-69
2021/01/30 00:12:41;;;;;;;;;;;;;;;12.78;64.73;99391.72;5049860;28;1922;-58
2021/01/30 00:15:07;;;;;;;;;;;;;;;12.80;64.46;99383.63;5047291;28;1388;-69
2021/01/30 00:17:32;;;;;;;;;;;;;;;12.79;64.38;99374.81;5044197;28;1365;-69
2021/01/30 00:19:57;;;;;;;;;;;;;;;12.80;64.52;99402.19;5050273;28;1152;-58
2021/01/30 00:22:24;;;;;;;;;;;;;;;12.79;63.69;99371.31;5042078;28;1548;-58
2021/01/30 00:24:49;;;;;;;;;;;;;;;12.78;64.66;99364.34;5046352;28;1637;-58
2021/01/30 00:27:16;;;;;;;;;;;;;;;12.77;64.30;99362.66;5051350;28;1755;-70
2021/01/30 00:29:41;;;;;;;;;;;;;;;12.78;63.79;99374.94;5047868;28;1561;-58
2021/01/30 00:32:07;;;;;;;;;;;;;;;12.79;63.62;99372.16;5052147;28;1381;-59
2021/01/30 00:34:33;;;;;;;;;;;;;;;12.78;64.03;99372.31;5045434;28;1945;-58
2021/01/30 00:37:09;;;;;;;;;;;;;;;12.76;64.40;99345.91;5044440;28;1732;-58
2021/01/30 00:39:35;;;;;;;;;;;;;;;12.77;64.60;99344.91;5046324;28;1615;-58
2021/01/30 00:42:00;;;;;;;;;;;;;;;12.78;63.65;99329.84;5046541;28;1448;-67
2021/01/30 00:44:25;;;;;;;;;;;;;;;12.78;64.74;99332.50;5044184;28;1607;-58
2021/01/30 00:46:50;;;;;;;;;;;;;;;12.74;64.52;99332.75;5045629;28;1635;-59
2021/01/30 00:49:16;;;;;;;;;;;;;;;12.77;63.92;99336.94;5046183;28;856;-58
2021/01/30 00:51:42;;;;;;;;;;;;;;;12.78;63.37;99328.03;5052312;28;1611;-70
2021/01/30 00:54:07;;;;;;;;;;;;;;;12.79;64.36;99318.25;5046268;28;1941;-59
2021/01/30 00:56:33;;;;;;;;;;;;;;;12.78;63.53;99308.63;5046370;28;1553;-58
2021/01/30 00:58:58;;;;;;;;;;;;;;;12.81;63.14;99318.97;5046267;28;1376;-58
2021/01/30 01:01:23;;;;;;;;;;;;;;;12.77;63.93;99304.28;5050576;28;1526;-58
2021/01/30 01:03:48;;;;;;;;;;;;;;;12.77;64.79;99309.59;5048479;28;1381;-70
2021/01/30 01:06:14;;;;;;;;;;;;;;;12.79;63.37;99305.00;5045454;28;1416;-58
2021/01/30 01:08:39;;;;;;;;;;;;;;;12.76;63.63;99298.16;5045432;28;1369;-58
2021/01/30 01:11:04;;;;;;;;;;;;;;;12.77;63.98;99299.81;5047060;28;1211;-58
2021/01/30 01:13:29;;;;;;;;;;;;;;;12.76;64.55;99292.00;5047860;28;1910;-58
2021/01/30 01:15:56;;;;;;;;;;;;;;;12.74;63.61;99295.63;5047790;28;1217;-58
2021/01/30 01:18:21;;;;;;;;;;;;;;;12.77;63.57;99289.22;5041450;28;1610;-70
2021/01/30 01:20:46;;;;;;;;;;;;;;;12.71;64.23;99274.69;5053533;28;1688;-69
2021/01/30 01:23:11;;;;;;;;;;;;;;;12.74;64.98;99294.78;5063758;28;1697;-59
2021/01/30 01:25:37;;;;;;;;;;;;;;;12.76;63.74;99292.00;5048381;28;1720;-58
2021/01/30 01:28:02;;;;;;;;;;;;;;;12.72;63.68;99279.00;5046418;28;1810;-69
2021/01/30 01:30:28;;;;;;;;;;;;;;;12.72;63.76;99286.97;5044919;28;1546;-69
2021/01/30 01:32:54;;;;;;;;;;;;;;;12.74;63.76;99279.72;5053493;28;1885;-66
2021/01/30 01:35:22;;;;;;;;;;;;;;;12.74;63.68;99285.00;5041089;28;870;-70
2021/01/30 01:37:47;;;;;;;;;;;;;;;12.74;63.38;99279.72;5041240;28;1723;-58
2021/01/30 01:40:15;;;;;;;;;;;;;;;12.74;64.30;99273.56;5049142;28;1560;-66
2021/01/30 01:42:40;;;;;;;;;;;;;;;12.72;63.32;99276.34;5049282;28;1612;-70
2021/01/30 01:45:06;;;;;;;;;;;;;;;12.73;63.69;99288.66;5047711;28;1357;-68
2021/01/30 01:47:38;;;;;;;;;;;;;;;12.71;64.99;99272.03;5042072;28;1582;-69
2021/01/30 01:50:06;;;;;;;;;;;;;;;12.71;64.28;99258.78;5043154;28;797;-58
2021/01/30 01:52:36;;;;;;;;;;;;;;;12.70;64.58;99258.91;5047556;28;1885;-65
2021/01/30 01:55:05;;;;;;;;;;;;;;;12.72;63.48;99257.78;5041101;28;1485;-58
2021/01/30 01:57:30;;;;;;;;;;;;;;;12.71;64.37;99253.47;5069522;28;1584;-67
2021/01/30 01:59:56;;;;;;;;;;;;;;;12.73;64.30;99256.81;5044971;28;1208;-70
2021/01/30 02:02:23;;;;;;;;;;;;;;;12.73;63.67;99248.00;5048070;28;1743;-59
2021/01/30 02:04:55;;;;;;;;;;;;;;;12.70;65.00;99246.47;5046895;28;1935;-65
2021/01/30 02:07:20;;;;;;;;;;;;;;;12.74;63.52;99250.53;5040743;28;1630;-58
2021/01/30 02:09:45;;;;;;;;;;;;;;;12.73;63.35;99240.91;5044870;28;1553;-58
2021/01/30 02:12:12;;;;;;;;;;;;;;;12.72;64.37;99238.38;5045343;28;1573;-58
2021/01/30 02:14:43;;;;;;;;;;;;;;;12.72;65.03;99243.69;5046831;28;1965;-58
2021/01/30 02:17:08;;;;;;;;;;;;;;;12.71;65.01;99245.50;5043394;28;1585;-58
2021/01/30 02:19:39;;;;;;;;;;;;;;;12.73;64.40;99246.22;5043486;28;882;-69
2021/01/30 02:22:10;;;;;;;;;;;;;;;12.71;64.56;99232.25;5040514;28;1590;-69
2021/01/30 02:24:53;;;;;;;;;;;;;;;12.68;63.89;99235.16;5046788;28;1356;-70
2021/01/30 02:27:19;;;;;;;;;;;;;;;12.71;64.14;99215.47;5044494;28;1612;-58
2021/01/30 02:30:02;;;;;;;;;;;;;;;12.68;64.32;99221.06;5044028;28;1632;-70
2021/01/30 02:32:54;;;;;;;;;;;;;;;12.68;64.52;99221.88;5042549;28;1949;-70
2021/01/30 02:35:30;;;;;;;;;;;;;;;12.70;64.45;99204.03;5048929;28;765;-58
2021/01/30 02:37:58;;;;;;;;;;;;;;;12.71;64.35;99220.78;5052575;28;1524;-70
2021/01/30 02:40:25;;;;;;;;;;;;;;;12.71;64.79;99212.81;5046384;28;1551;-59
2021/01/30 02:42:57;;;;;;;;;;;;;;;12.72;64.38;99196.78;5053081;28;1621;-69
2021/01/30 02:45:25;;;;;;;;;;;;;;;12.73;64.40;99197.59;5050596;28;1293;-70
2021/01/30 02:48:04;;;;;;;;;;;;;;;12.70;64.05;99196.06;5048555;28;1397;-59
2021/01/30 02:50:31;;;;;;;;;;;;;;;12.71;64.98;99195.13;5042604;28;840;-70
2021/01/30 02:52:59;;;;;;;;;;;;;;;12.72;64.42;99210.03;5049838;28;1959;-58
2021/01/30 02:55:24;;;;;;;;;;;;;;;12.66;64.61;99202.63;5044091;28;1725;-58
2021/01/30 02:57:51;;;;;;;;;;;;;;;12.69;63.26;99191.75;5049831;28;1393;-59
2021/01/30 03:02:58;;;;;;;;;;;;;;;12.67;63.46;99204.31;4374991;26;3551;-54
2021/01/30 03:05:23;;;;;;;;;;;;;;;12.68;64.22;99197.19;5056995;28;856;-54
2021/01/30 03:07:49;;;;;;;;;;;;;;;12.69;63.57;99202.38;5049098;28;1925;-54
2021/01/30 03:10:30;;;;;;;;;;;;;;;12.70;64.73;99204.03;5074494;22;3601;-58
2021/01/30 03:13:07;;;;;;;;;;;;;;;12.68;63.36;99199.84;5029538;28;1922;-58
2021/01/30 03:15:41;;;;;;;;;;;;;;;12.70;63.58;99208.50;5029086;28;1706;-58
2021/01/30 03:18:08;;;;;;;;;;;;;;;12.68;64.50;99195.38;5029747;28;1734;-70
2021/01/30 03:20:37;;;;;;;;;;;;;;;12.70;63.75;99208.50;5035975;28;1639;-69
2021/01/30 03:23:02;;;;;;;;;;;;;;;12.69;63.86;99209.47;5036623;28;1598;-58
2021/01/30 03:25:29;;;;;;;;;;;;;;;12.69;63.66;99212.97;5018557;28;1518;-59
2021/01/30 03:27:56;;;;;;;;;;;;;;;12.70;64.97;99216.47;5034221;28;1470;-58
2021/01/30 03:30:22;;;;;;;;;;;;;;;12.68;64.55;99210.44;5035958;28;1717;-58
2021/01/30 03:32:47;;;;;;;;;;;;;;;12.71;64.97;99199.56;5026842;28;1951;-59
2021/01/30 03:35:13;;;;;;;;;;;;;;;12.66;64.23;99186.72;5028640;28;1852;-69
2021/01/30 03:37:39;;;;;;;;;;;;;;;12.68;63.43;99192.72;5031088;28;1402;-59
2021/01/30 03:40:05;;;;;;;;;;;;;;;12.66;64.58;99191.19;5025476;28;1575;-58
2021/01/30 03:42:31;;;;;;;;;;;;;;;12.65;63.67;99179.75;5013852;28;1455;-62
2021/01/30 03:44:56;;;;;;;;;;;;;;;12.65;64.98;99182.38;5026231;28;1413;-58
2021/01/30 03:47:21;;;;;;;;;;;;;;;12.65;63.94;99179.75;5035875;28;1273;-69
2021/01/30 03:49:46;;;;;;;;;;;;;;;12.65;64.62;99177.09;5034724;28;1281;-59
2021/01/30 03:52:12;;;;;;;;;;;;;;;12.66;63.97;99176.09;5034754;28;1532;-58
2021/01/30 03:54:37;;;;;;;;;;;;;;;12.64;64.73;99178.03;5025942;28;1951;-58
2021/01/30 03:57:02;;;;;;;;;;;;;;;12.63;64.51;99178.16;5028564;28;918;-58
2021/01/30 03:59:28;;;;;;;;;;;;;;;12.64;65.08;99183.34;5028036;28;1585;-58
2021/01/30 04:01:53;;;;;;;;;;;;;;;12.64;64.55;99172.75;5030938;28;1517;-70
2021/01/30 04:04:18;;;;;;;;;;;;;;;12.65;64.65;99182.38;5030663;28;1388;-70
2021/01/30 04:06:50;;;;;;;;;;;;;;;12.66;64.57;99183.22;5022822;28;1621;-70
2021/01/30 04:09:17;;;;;;;;;;;;;;;12.63;65.04;99162.25;5026085;28;1346;-58
2021/01/30 04:11:42;;;;;;;;;;;;;;;12.64;64.78;99178.03;5025940;28;1198;-58
2021/01/30 04:14:07;;;;;;;;;;;;;;;12.64;64.74;99170.09;5025757;28;1977;-70
2021/01/30 04:16:33;;;;;;;;;;;;;;;12.63;63.80;99162.25;5035170;28;1361;-58
2021/01/30 04:18:59;;;;;;;;;;;;;;;12.65;63.38;99169.13;5027421;28;886;-70
2021/01/30 04:21:24;;;;;;;;;;;;;;;12.64;63.37;99164.78;5020191;28;1556;-58
2021/01/30 04:23:49;;;;;;;;;;;;;;;12.64;64.25;99158.66;5033181;28;1609;-70
2021/01/30 04:26:17;;;;;;;;;;;;;;;12.66;64.89;99149.56;5033978;28;1162;-70
2021/01/30 04:28:42;;;;;;;;;;;;;;;12.64;63.80;99151.53;5033187;28;1512;-70
2021/01/30 04:31:07;;;;;;;;;;;;;;;12.65;64.05;99163.81;5041821;28;1373;-70
2021/01/30 04:33:33;;;;;;;;;;;;;;;12.63;63.96;99149.00;5025559;28;1949;-58
2021/01/30 04:35:58;;;;;;;;;;;;;;;12.63;64.28;99141.88;5030350;28;1377;-58
2021/01/30 04:38:23;;;;;;;;;;;;;;;12.65;63.76;99169.13;5033439;28;1709;-69
2021/01/30 04:40:54;;;;;;;;;;;;;;;12.64;64.71;99170.09;5034128;28;1550;-64
2021/01/30 04:43:31;;;;;;;;;;;;;;;12.64;64.17;99154.19;5026024;28;1760;-58
2021/01/30 04:46:01;;;;;;;;;;;;;;;12.64;64.40;99162.13;5029499;28;1338;-58
2021/01/30 04:48:32;;;;;;;;;;;;;;;12.63;64.48;99156.94;5029992;28;1542;-70
2021/01/30 04:50:58;;;;;;;;;;;;;;;12.63;64.97;99149.00;5032893;28;1701;-70
2021/01/30 04:53:38;;;;;;;;;;;;;;;12.65;64.52;99147.06;5021562;28;1941;-70
2021/01/30 04:56:26;;;;;;;;;;;;;;;12.59;64.48;99140.47;5035029;28;683;-58
2021/01/30 04:58:59;;;;;;;;;;;;;;;12.61;64.63;99135.88;5003949;28;1357;-70
2021/01/30 05:01:30;;;;;;;;;;;;;;;12.63;63.74;99133.91;5033939;28;1458;-70
2021/01/30 05:03:58;;;;;;;;;;;;;;;12.60;64.51;99139.50;5025663;28;1400;-70
2021/01/30 05:06:40;;;;;;;;;;;;;;;12.59;63.77;99143.13;5018338;28;1657;-70
2021/01/30 05:09:10;;;;;;;;;;;;;;;12.62;64.50;99148.16;5028054;28;1539;-62
2021/01/30 05:11:35;;;;;;;;;;;;;;;12.60;63.87;99139.50;5032056;28;1316;-58
2021/01/30 05:14:12;;;;;;;;;;;;;;;12.59;63.45;99137.81;5033414;28;1981;-69
2021/01/30 05:16:40;;;;;;;;;;;;;;;12.60;64.24;99150.13;5027275;28;1378;-58
2021/01/30 05:19:08;;;;;;;;;;;;;;;12.62;63.73;99145.50;5049450;28;1393;-59
2021/01/30 05:21:38;;;;;;;;;;;;;;;12.60;64.80;99144.81;5032134;28;1540;-70
2021/01/30 05:24:04;;;;;;;;;;;;;;;12.59;63.48;99135.16;5024491;28;1590;-58
2021/01/30 05:26:49;;;;;;;;;;;;;;;12.58;63.87;99141.44;5033186;28;1665;-58
2021/01/30 05:29:24;;;;;;;;;;;;;;;12.58;63.79;99141.44;5028813;28;1579;-70
2021/01/30 05:31:54;;;;;;;;;;;;;;;12.59;65.12;99143.13;5029629;28;1230;-65
2021/01/30 05:34:19;;;;;;;;;;;;;;;12.58;64.62;99135.31;5033839;28;1952;-58
2021/01/30 05:37:04;;;;;;;;;;;;;;;12.57;64.88;99139.75;5033582;28;1696;-70
2021/01/30 05:39:29;;;;;;;;;;;;;;;12.56;64.97;99138.09;5026239;28;1550;-70
2021/01/30 05:42:01;;;;;;;;;;;;;;;12.58;64.98;99143.28;5024572;28;1589;-59
2021/01/30 05:44:33;;;;;;;;;;;;;;;12.60;64.58;99136.03;5031651;28;1550;-70
2021/01/30 05:46:59;;;;;;;;;;;;;;;12.54;64.69;99140.03;5041763;28;1680;-70
2021/01/30 05:49:27;;;;;;;;;;;;;;;12.57;64.68;99138.94;5022580;28;798;-69
2021/01/30 05:52:04;;;;;;;;;;;;;;;12.58;63.75;99140.63;5018682;28;2275;-58
2021/01/30 05:54:30;;;;;;;;;;;;;;;12.60;64.72;99150.13;5032589;28;1878;-70
2021/01/30 05:56:55;;;;;;;;;;;;;;;12.60;63.89;99150.13;5033232;28;1530;-58
2021/01/30 05:59:24;;;;;;;;;;;;;;;12.59;64.28;99143.13;5047360;28;1202;-70
2021/01/30 06:01:49;;;;;;;;;;;;;;;12.59;64.01;99142.28;5031396;28;1385;-59
2021/01/30 06:04:24;;;;;;;;;;;;;;;12.62;64.35;99142.88;5023490;28;870;-70
2021/01/30 06:06:50;;;;;;;;;;;;;;;12.63;64.77;99147.19;5033016;28;1673;-59
2021/01/30 06:09:36;;;;;;;;;;;;;;;12.64;64.40;99150.69;5021692;28;1550;-69
2021/01/30 06:12:15;;;;;;;;;;;;;;;12.62;63.96;99153.47;5021004;28;1385;-58
2021/01/30 06:14:41;;;;;;;;;;;;;;;12.63;64.53;99170.22;5024941;28;1903;-70
2021/01/30 06:17:35;;;;;;;;;;;;;;;12.62;64.58;99161.44;5031135;28;1597;-58
2021/01/30 06:20:03;;;;;;;;;;;;;;;12.59;63.58;99164.34;5016385;28;1257;-58
2021/01/30 06:22:28;;;;;;;;;;;;;;;12.61;64.87;99178.28;5031429;28;1744;-69
2021/01/30 06:24:54;;;;;;;;;;;;;;;12.61;64.75;99182.78;5032578;28;1525;-70
2021/01/30 06:27:19;;;;;;;;;;;;;;;12.61;64.67;99173.00;5033350;28;860;-58
2021/01/30 06:29:51;;;;;;;;;;;;;;;12.59;63.68;99180.25;5027652;28;1559;-58
2021/01/30 06:32:19;;;;;;;;;;;;;;;12.61;63.73;99183.59;5027872;28;1527;-58
2021/01/30 06:34:46;;;;;;;;;;;;;;;12.60;64.48;99191.72;5031169;28;1896;-70
2021/01/30 06:37:15;;;;;;;;;;;;;;;12.61;63.95;99188.91;5043473;28;1610;-59
2021/01/30 06:39:43;;;;;;;;;;;;;;;12.62;64.74;99187.94;5043878;28;1390;-70
2021/01/30 06:42:10;;;;;;;;;;;;;;;12.61;64.64;99196.84;5031569;28;1413;-70
2021/01/30 06:44:37;;;;;;;;;;;;;;;12.57;63.96;99192.78;5032152;28;1420;-58
2021/01/30 06:47:08;;;;;;;;;;;;;;;12.55;64.26;99200.03;5028305;28;1573;-70
2021/01/30 06:49:38;;;;;;;;;;;;;;;12.58;64.49;99194.50;5033006;28;833;-58
2021/01/30 06:52:05;;;;;;;;;;;;;;;12.60;63.57;99197.84;5027949;28;1480;-70
2021/01/30 06:54:32;;;;;;;;;;;;;;;12.60;63.41;99192.53;5028140;28;1975;-69
2021/01/30 06:57:08;;;;;;;;;;;;;;;12.60;63.58;99212.94;5029658;28;1620;-58
2021/01/30 06:59:48;;;;;;;;;;;;;;;12.59;64.55;99196.16;5020619;28;1417;-58
2021/01/30 07:02:15;;;;;;;;;;;;;;;12.60;64.84;99204.97;5027926;28;1566;-58
2021/01/30 07:04:45;;;;;;;;;;;;;;;12.58;64.86;99210.41;5032251;28;1271;-69
2021/01/30 07:07:21;;;;;;;;;;;;;;;12.61;63.95;99222.53;5028238;28;1650;-58
2021/01/30 07:09:49;;;;;;;;;;;;;;;12.58;63.41;99215.69;5022806;28;1613;-59
2021/01/30 07:12:25;;;;;;;;;;;;;;;12.59;64.58;99227.97;5027741;28;1437;-58
2021/01/30 07:15:01;;;;;;;;;;;;;;;12.59;63.79;99227.13;5032083;28;1554;-70
2021/01/30 07:17:32;;;;;;;;;;;;;;;12.59;63.60;99225.31;5027840;28;1377;-58
2021/01/30 07:19:57;;;;;;;;;;;;;;;12.62;64.19;99233.03;5023551;28;1476;-58
2021/01/30 07:22:25;;;;;;;;;;;;;;;12.60;64.59;99234.97;5031412;28;1710;-70
2021/01/30 07:25:07;;;;;;;;;;;;;;;12.64;64.42;99230.25;5031706;28;1605;-59
2021/01/30 07:27:37;;;;;;;;;;;;;;;12.62;64.77;99240.16;5027953;28;1518;-58
2021/01/30 07:30:08;;;;;;;;;;;;;;;12.62;64.82;99230.38;5034891;28;1696;-58
2021/01/30 07:32:38;;;;;;;;;;;;;;;12.63;63.81;99240.00;5035433;28;1886;-58
2021/01/30 07:35:03;;;;;;;;;;;;;;;12.63;63.46;99239.16;5036307;28;737;-70
2021/01/30 07:37:43;;;;;;;;;;;;;;;12.63;64.32;99239.16;5031434;28;1729;-70
2021/01/30 07:40:14;;;;;;;;;;;;;;;12.63;64.06;99247.94;5025876;28;1538;-58
2021/01/30 07:42:58;;;;;;;;;;;;;;;12.61;64.38;99247.25;5028627;28;1357;-58
2021/01/30 07:45:29;;;;;;;;;;;;;;;12.64;64.68;99244.34;5027651;28;1578;-70
2021/01/30 07:48:13;;;;;;;;;;;;;;;12.61;64.52;99252.53;5043465;28;1609;-58
2021/01/30 07:50:41;;;;;;;;;;;;;;;12.62;64.04;99256.91;5019090;28;785;-58
2021/01/30 07:53:06;;;;;;;;;;;;;;;12.64;64.82;99262.91;5034360;28;1949;-58
2021/01/30 07:55:32;;;;;;;;;;;;;;;12.63;64.10;99263.88;5022395;28;1720;-70
2021/01/30 07:58:03;;;;;;;;;;;;;;;12.65;62.97;99274.34;5030160;28;1566;-58
2021/01/30 08:00:32;;;;;;;;;;;;;;;12.64;63.15;99284.13;5033811;28;1503;-70
2021/01/30 08:03:03;;;;;;;;;;;;;;;12.65;64.34;99280.50;5033506;28;1433;-69
2021/01/30 08:05:42;;;;;;;;;;;;;;;12.66;64.46;99284.84;5035711;28;805;-58
2021/01/30 08:08:29;;;;;;;;;;;;;;;12.66;64.66;99298.09;5043966;28;1585;-58
2021/01/30 08:10:54;;;;;;;;;;;;;;;12.65;64.18;99296.44;5033443;28;1606;-58
2021/01/30 08:13:41;;;;;;;;;;;;;;;12.65;64.17;99308.81;5029351;28;1906;-58
2021/01/30 08:16:19;;;;;;;;;;;;;;;12.63;64.14;99303.66;5049775;28;1496;-58
2021/01/30 08:18:45;;;;;;;;;;;;;;;12.65;64.49;99306.16;5035009;28;1573;-70
2021/01/30 08:21:14;;;;;;;;;;;;;;;12.61;63.30;99307.41;5035058;28;1712;-58
2021/01/30 08:23:48;;;;;;;;;;;;;;;12.63;63.97;99324.84;5026600;28;1605;-60
2021/01/30 08:26:20;;;;;;;;;;;;;;;12.63;62.94;99334.63;5029575;28;1550;-69
2021/01/30 08:29:06;;;;;;;;;;;;;;;12.65;64.16;99333.56;5035562;28;830;-58
2021/01/30 08:31:39;;;;;;;;;;;;;;;12.62;64.20;99317.88;5018217;28;1194;-69
2021/01/30 08:34:05;;;;;;;;;;;;;;;12.68;63.38;99343.88;5026459;28;1956;-58
2021/01/30 08:36:35;;;;;;;;;;;;;;;12.68;63.51;99327.97;5033389;28;1748;-70
2021/01/30 08:39:04;;;;;;;;;;;;;;;12.65;64.00;99328.25;5028341;28;1349;-58
2021/01/30 08:41:38;;;;;;;;;;;;;;;12.64;62.97;99331.84;5034837;28;1542;-58
2021/01/30 08:44:03;;;;;;;;;;;;;;;12.64;64.64;99323.91;5050831;28;1577;-70
2021/01/30 08:46:39;;;;;;;;;;;;;;;12.65;64.20;99328.25;5026594;28;1550;-58
2021/01/30 08:49:13;;;;;;;;;;;;;;;12.65;64.52;99328.25;5034698;28;1265;-70
2021/01/30 08:51:39;;;;;;;;;;;;;;;12.65;63.28;99327.38;5032073;28;1700;-58
2021/01/30 08:54:33;;;;;;;;;;;;;;;12.68;63.97;99338.59;5043979;28;1893;-69
2021/01/30 08:56:59;;;;;;;;;;;;;;;12.65;63.71;99320.28;5008475;28;1645;-70
2021/01/30 08:59:40;;;;;;;;;;;;;;;12.68;64.12;99321.84;5031568;28;1237;-58
2021/01/30 09:02:06;;;;;;;;;;;;;;;12.68;63.76;99329.78;5033477;28;1585;-70
2021/01/30 09:04:45;;;;;;;;;;;;;;;12.67;63.72;99321.00;5032436;28;860;-69
2021/01/30 09:07:34;;;;;;;;;;;;;;;12.66;63.86;99329.91;5034636;28;1661;-58
2021/01/30 09:10:18;;;;;;;;;;;;;;;12.67;63.08;99331.63;5025618;28;1682;-70
2021/01/30 09:13:00;;;;;;;;;;;;;;;12.69;63.01;99319.06;5034112;28;1910;-58
2021/01/30 09:15:37;;;;;;;;;;;;;;;12.67;63.08;99336.91;5029889;28;1487;-59
2021/01/30 09:18:06;;;;;;;;;;;;;;;12.67;64.36;99330.75;5027711;28;1557;-70
2021/01/30 09:20:34;;;;;;;;;;;;;;;12.67;64.09;99342.22;5031004;28;939;-69
2021/01/30 09:23:14;;;;;;;;;;;;;;;12.68;64.04;99335.94;5021171;28;1740;-70
2021/01/30 09:25:40;;;;;;;;;;;;;;;12.65;63.91;99332.69;5029199;28;1760;-70
2021/01/30 09:28:07;;;;;;;;;;;;;;;12.66;63.90;99332.56;5030603;28;1250;-69
2021/01/30 09:30:38;;;;;;;;;;;;;;;12.65;64.15;99338.00;5032927;28;1598;-58
2021/01/30 09:33:15;;;;;;;;;;;;;;;12.63;64.37;99334.63;5029642;28;1894;-58
2021/01/30 09:35:42;;;;;;;;;;;;;;;12.62;63.34;99344.41;5017927;28;795;-70
2021/01/30 09:38:17;;;;;;;;;;;;;;;12.61;64.24;99336.56;5027111;28;1545;-59
2021/01/30 09:40:42;;;;;;;;;;;;;;;12.60;64.59;99325.13;5024245;28;1488;-59
2021/01/30 09:43:08;;;;;;;;;;;;;;;12.61;62.94;99324.16;5032602;28;1524;-70
2021/01/30 09:45:34;;;;;;;;;;;;;;;12.62;64.67;99322.34;5029982;28;1624;-59
2021/01/30 09:48:03;;;;;;;;;;;;;;;12.62;63.42;99317.88;5034199;28;1504;-68
2021/01/30 09:50:30;;;;;;;;;;;;;;;12.64;63.20;99334.50;5034370;28;953;-58
2021/01/30 09:53:01;;;;;;;;;;;;;;;12.62;64.10;99323.19;5032460;28;2031;-58
2021/01/30 09:55:26;;;;;;;;;;;;;;;12.64;64.13;99320.41;5029204;28;1743;-58
2021/01/30 09:57:58;;;;;;;;;;;;;;;12.61;63.42;99315.34;5019084;28;1563;-58
2021/01/30 10:00:31;;;;;;;;;;;;;;;12.61;63.27;99332.09;5029284;28;1492;-58
2021/01/30 10:03:09;;;;;;;;;;;;;;;12.61;63.82;99328.63;5034438;28;1637;-58
2021/01/30 10:05:34;;;;;;;;;;;;;;;12.60;64.66;99346.34;5028359;28;780;-69
2021/01/30 10:08:12;;;;;;;;;;;;;;;12.62;64.23;99362.97;5048224;28;1548;-58
2021/01/30 10:10:37;;;;;;;;;;;;;;;12.63;64.10;99377.06;5033651;28;1548;-58
2021/01/30 10:13:10;;;;;;;;;;;;;;;12.63;63.26;99372.59;5034199;28;1914;-70
2021/01/30 10:15:36;;;;;;;;;;;;;;;12.59;64.25;99349.94;5033710;28;1412;-70
2021/01/30 10:18:06;;;;;;;;;;;;;;;12.61;64.22;99352.47;5029934;28;1597;-58
2021/01/30 10:20:46;;;;;;;;;;;;;;;12.61;64.15;99365.75;5019026;28;858;-69
2021/01/30 10:23:11;;;;;;;;;;;;;;;12.61;64.10;99363.94;5042767;28;1725;-58
2021/01/30 10:25:36;;;;;;;;;;;;;;;12.60;64.38;99351.66;5047618;28;1738;-58
2021/01/30 10:28:09;;;;;;;;;;;;;;;12.57;64.39;99351.91;5033852;28;1540;-70
2021/01/30 10:30:35;;;;;;;;;;;;;;;12.58;64.73;99353.59;5029730;28;1550;-70
2021/01/30 10:33:02;;;;;;;;;;;;;;;12.59;64.38;99363.22;5034655;28;1894;-70
2021/01/30 10:35:38;;;;;;;;;;;;;;;12.60;64.38;99367.56;5035621;28;814;-70
2021/01/30 10:38:08;;;;;;;;;;;;;;;12.55;64.74;99359.13;5031705;28;1682;-58
2021/01/30 10:40:38;;;;;;;;;;;;;;;12.59;64.21;99368.53;5031785;28;1866;-58
2021/01/30 10:43:13;;;;;;;;;;;;;;;12.61;63.03;99353.31;5027930;28;1793;-58
2021/01/30 10:45:39;;;;;;;;;;;;;;;12.60;64.34;99364.09;5032701;28;1645;-59
2021/01/30 10:48:26;;;;;;;;;;;;;;;12.56;64.63;99344.09;5033896;28;1353;-65
2021/01/30 10:50:52;;;;;;;;;;;;;;;12.59;64.09;99362.38;5034462;28;1422;-58
2021/01/30 10:53:32;;;;;;;;;;;;;;;12.58;64.19;99364.19;5032860;28;1944;-70
2021/01/30 10:55:58;;;;;;;;;;;;;;;12.62;64.27;99356.84;5034628;28;1004;-71
2021/01/30 10:58:24;;;;;;;;;;;;;;;12.57;63.25;99365.16;5032972;28;1733;-71
2021/01/30 11:00:57;;;;;;;;;;;;;;;12.59;64.29;99365.88;5033449;28;1559;-67
2021/01/30 11:03:27;;;;;;;;;;;;;;;12.57;63.04;99367.81;5031603;28;1627;-71
2021/01/30 11:05:53;;;;;;;;;;;;;;;12.62;63.27;99375.41;5038052;28;1197;-73
2021/01/30 11:08:30;;;;;;;;;;;;;;;12.59;63.56;99365.88;5036698;28;1168;-68
2021/01/30 11:11:06;;;;;;;;;;;;;;;12.64;64.88;99347.78;5036556;28;1613;-71
2021/01/30 11:13:37;;;;;;;;;;;;;;;12.66;64.12;99340.53;5034086;28;2058;-70
2021/01/30 11:16:23;;;;;;;;;;;;;;;12.65;63.52;99357.44;5036008;28;1443;-70
2021/01/30 11:18:50;;;;;;;;;;;;;;;12.62;64.30;99349.72;5035534;28;1460;-70
2021/01/30 11:21:29;;;;;;;;;;;;;;;12.57;64.73;99362.50;5037544;28;1353;-71
2021/01/30 11:23:55;;;;;;;;;;;;;;;12.57;63.65;99341.28;5050610;28;1377;-73
2021/01/30 11:26:37;;;;;;;;;;;;;;;12.62;64.54;99352.38;5036273;28;1411;-59
2021/01/30 11:29:05;;;;;;;;;;;;;;;12.64;63.13;99353.06;5036317;28;1397;-69
2021/01/30 11:31:31;;;;;;;;;;;;;;;12.64;64.40;99345.13;5034869;28;1261;-59
2021/01/30 11:33:58;;;;;;;;;;;;;;;12.61;64.24;99341.88;5053092;28;1894;-72
2021/01/30 11:36:24;;;;;;;;;;;;;;;12.63;64.32;99335.47;5053068;28;1693;-72
2021/01/30 11:38:57;;;;;;;;;;;;;;;12.66;64.35;99337.03;5051278;28;1290;-71
2021/01/30 11:41:23;;;;;;;;;;;;;;;12.72;63.53;99334.69;5043147;28;1246;-58
2021/01/30 11:43:48;;;;;;;;;;;;;;;12.74;64.31;99339.88;5034913;28;1523;-59
2021/01/30 11:46:14;;;;;;;;;;;;;;;12.69;64.36;99360.63;5030477;28;1206;-59
2021/01/30 11:48:39;;;;;;;;;;;;;;;12.63;64.88;99330.16;5032929;28;1571;-70
2021/01/30 11:51:05;;;;;;;;;;;;;;;12.64;64.44;99325.72;5032376;28;1551;-58
2021/01/30 11:53:30;;;;;;;;;;;;;;;12.64;64.38;99323.91;5050785;28;1894;-58
2021/01/30 11:55:56;;;;;;;;;;;;;;;12.65;64.04;99338.00;5034149;28;822;-59
2021/01/30 11:58:22;;;;;;;;;;;;;;;12.62;63.73;99323.19;5034888;28;1783;-58
2021/01/30 12:00:47;;;;;;;;;;;;;;;12.63;64.41;99327.50;5034254;28;1551;-70
2021/01/30 12:03:24;;;;;;;;;;;;;;;12.62;63.90;99327.66;5050134;28;1487;-58
2021/01/30 12:05:49;;;;;;;;;;;;;;;12.58;63.42;99321.78;5033670;28;1632;-58
2021/01/30 12:08:14;;;;;;;;;;;;;;;12.63;64.94;99324.84;5028522;28;1700;-58
2021/01/30 12:10:39;;;;;;;;;;;;;;;12.64;63.61;99336.34;5027083;28;1548;-58
2021/01/30 12:13:05;;;;;;;;;;;;;;;12.62;63.85;99333.81;5024963;28;1906;-58
2021/01/30 12:15:30;;;;;;;;;;;;;;;12.59;64.72;99338.50;5041373;28;1792;-69
2021/01/30 12:17:56;;;;;;;;;;;;;;;12.60;63.65;99337.56;5031767;28;1362;-70
2021/01/30 12:20:23;;;;;;;;;;;;;;;12.62;63.62;99344.41;5053172;28;1144;-59
2021/01/30 12:22:48;;;;;;;;;;;;;;;12.62;63.82;99343.56;5036351;28;1533;-68
2021/01/30 12:25:15;;;;;;;;;;;;;;;12.56;64.44;99326.38;5034704;28;1658;-58
2021/01/30 12:27:42;;;;;;;;;;;;;;;12.61;64.88;99341.88;5035966;28;1544;-58
2021/01/30 12:30:08;;;;;;;;;;;;;;;12.61;64.53;99340.06;5034905;28;1437;-58
2021/01/30 12:32:35;;;;;;;;;;;;;;;12.62;64.47;99347.06;5032115;28;1361;-70
2021/01/30 12:35:01;;;;;;;;;;;;;;;12.62;65.06;99360.31;5025779;28;1951;-58
2021/01/30 12:37:26;;;;;;;;;;;;;;;12.60;64.37;99350.81;5045224;28;1737;-58
2021/01/30 12:39:51;;;;;;;;;;;;;;;12.60;64.66;99367.56;5030728;28;1705;-59
2021/01/30 12:42:16;;;;;;;;;;;;;;;12.60;64.97;99337.56;5033856;28;1587;-59
2021/01/30 12:44:42;;;;;;;;;;;;;;;12.59;63.20;99360.56;5043361;28;1589;-58
2021/01/30 12:47:07;;;;;;;;;;;;;;;12.62;64.21;99352.38;5035196;28;1421;-58
2021/01/30 12:49:32;;;;;;;;;;;;;;;12.60;64.53;99364.91;5036618;28;822;-70
2021/01/30 12:51:57;;;;;;;;;;;;;;;12.60;63.41;99362.25;5035392;28;1634;-70
2021/01/30 12:54:23;;;;;;;;;;;;;;;12.62;64.15;99384.19;5035621;28;1965;-70
2021/01/30 12:56:48;;;;;;;;;;;;;;;12.62;64.61;99364.78;5034204;28;1570;-58
2021/01/30 12:59:14;;;;;;;;;;;;;;;12.55;64.58;99359.13;5028245;28;1562;-67
2021/01/30 13:01:39;;;;;;;;;;;;;;;12.54;63.91;99352.16;5026639;28;1634;-58
2021/01/30 13:04:05;;;;;;;;;;;;;;;12.58;64.58;99363.38;5027517;28;838;-70
2021/01/30 13:06:30;;;;;;;;;;;;;;;12.59;64.08;99373.00;5035693;28;1473;-58
2021/01/30 13:08:55;;;;;;;;;;;;;;;12.57;64.56;99366.97;5031569;28;1550;-58
2021/01/30 13:11:21;;;;;;;;;;;;;;;12.55;63.35;99375.03;5034835;28;1621;-58